sensor_id;sensor_type;location;lat;lon;timestamp;pressure;altitude;pressure_sealevel;temperature;humidity
9077;BME280;4574;51.072;17.174;2022-12-18T00:00:07;101801.88;;;-2.92;100.00
9077;BME280;4574;51.072;17.174;2022-12-18T00:02:36;101796.75;;;-2.96;100.00
9077;BME280;4574;51.072;17.174;2022-12-18T00:05:07;101800.47;;;-3.12;100.00
9077;BME280;4574;51.072;17.174;2022-12-18T00:07:36;101797.00;;;-3.10;100.00
9077;BME280;4574;51.072;17.174;2022-12-18T00:10:06;101801.38;;;-3.15;100.00
9077;BME280;4574;51.072;17.174;2022-12-18T00:12:34;101794.53;;;-3.19;100.00
9077;BME280;4574;51.072;17.174;2022-12-18T00:15:03;101799.63;;;-3.13;100.00
9077;BME280;4574;51.072;17.174;2022-12-18T00:17:32;101809.06;;;-3.09;100.00
9077;BME280;4574;51.072;17.174;2022-12-18T00:20:01;101808.97;;;-3.04;100.00
9077;BME280;4574;51.072;17.174;2022-12-18T00:22:30;101813.22;;;-2.99;100.00
9077;BME280;4574;51.072;17.174;2022-12-18T00:24:59;101813.41;;;-3.11;100.00
9077;BME280;4574;51.072;17.174;2022-12-18T00:27:27;101812.50;;;-3.08;100.00
9077;BME280;4574;51.072;17.174;2022-12-18T00:29:55;101825.44;;;-3.07;100.00
9077;BME280;4574;51.072;17.174;2022-12-18T00:32:24;101824.50;;;-3.04;100.00
9077;BME280;4574;51.072;17.174;2022-12-18T00:34:52;101812.41;;;-3.02;100.00
9077;BME280;4574;51.072;17.174;2022-12-18T00:37:21;101825.25;;;-2.96;100.00
9077;BME280;4574;51.072;17.174;2022-12-18T00:39:51;101826.22;;;-3.03;100.00
9077;BME280;4574;51.072;17.174;2022-12-18T00:42:19;101830.63;;;-3.07;100.00
9077;BME280;4574;51.072;17.174;2022-12-18T00:45:06;101845.22;;;-3.04;100.00
9077;BME280;4574;51.072;17.174;2022-12-18T00:47:39;101847.78;;;-3.01;100.00
9077;BME280;4574;51.072;17.174;2022-12-18T00:50:09;101846.00;;;-2.98;100.00
9077;BME280;4574;51.072;17.174;2022-12-18T00:52:40;101846.75;;;-2.91;100.00
9077;BME280;4574;51.072;17.174;2022-12-18T00:55:11;101857.91;;;-2.85;100.00
9077;BME280;4574;51.072;17.174;2022-12-18T00:57:40;101857.91;;;-2.85;100.00
9077;BME280;4574;51.072;17.174;2022-12-18T01:00:11;101867.25;;;-2.76;100.00
9077;BME280;4574;51.072;17.174;2022-12-18T01:02:41;101868.06;;;-2.74;100.00
9077;BME280;4574;51.072;17.174;2022-12-18T01:05:11;101874.09;;;-2.71;100.00
9077;BME280;4574;51.072;17.174;2022-12-18T01:07:40;101881.91;;;-2.74;100.00
9077;BME280;4574;51.072;17.174;2022-12-18T01:10:11;101878.47;;;-2.76;100.00
9077;BME280;4574;51.072;17.174;2022-12-18T01:12:41;101888.84;;;-2.77;100.00
9077;BME280;4574;51.072;17.174;2022-12-18T01:15:12;101889.69;;;-2.75;100.00
9077;BME280;4574;51.072;17.174;2022-12-18T01:17:40;101885.38;;;-2.75;100.00
9077;BME280;4574;51.072;17.174;2022-12-18T01:20:11;101879.38;;;-2.78;100.00
9077;BME280;4574;51.072;17.174;2022-12-18T01:22:41;101887.13;;;-2.77;100.00
9077;BME280;4574;51.072;17.174;2022-12-18T01:25:10;101883.75;;;-2.82;100.00
9077;BME280;4574;51.072;17.174;2022-12-18T01:27:39;101890.69;;;-2.84;100.00
9077;BME280;4574;51.072;17.174;2022-12-18T01:30:08;101893.34;;;-2.88;100.00
9077;BME280;4574;51.072;17.174;2022-12-18T01:32:37;101902.03;;;-2.92;100.00
9077;BME280;4574;51.072;17.174;2022-12-18T01:35:06;101913.28;;;-2.92;100.00
9077;BME280;4574;51.072;17.174;2022-12-18T01:37:35;101908.88;;;-2.88;100.00
9077;BME280;4574;51.072;17.174;2022-12-18T01:40:04;101904.63;;;-2.91;100.00
9077;BME280;4574;51.072;17.174;2022-12-18T01:42:34;101911.47;;;-2.87;100.00
9077;BME280;4574;51.072;17.174;2022-12-18T01:45:06;101913.22;;;-2.89;100.00
9077;BME280;4574;51.072;17.174;2022-12-18T01:47:38;101907.16;;;-2.88;100.00
9077;BME280;4574;51.072;17.174;2022-12-18T01:50:10;101909.66;;;-2.82;100.00
9077;BME280;4574;51.072;17.174;2022-12-18T01:52:41;101907.88;;;-2.78;100.00
9077;BME280;4574;51.072;17.174;2022-12-18T01:55:11;101903.47;;;-2.72;100.00
9077;BME280;4574;51.072;17.174;2022-12-18T01:57:42;101908.66;;;-2.72;100.00
9077;BME280;4574;51.072;17.174;2022-12-18T02:00:14;101912.03;;;-2.67;100.00
9077;BME280;4574;51.072;17.174;2022-12-18T02:02:44;101920.59;;;-2.64;100.00
9077;BME280;4574;51.072;17.174;2022-12-18T02:05:16;101926.59;;;-2.60;100.00
9077;BME280;4574;51.072;17.174;2022-12-18T02:07:55;101917.94;;;-2.59;100.00
9077;BME280;4574;51.072;17.174;2022-12-18T02:10:42;101929.09;;;-2.56;100.00
9077;BME280;4574;51.072;17.174;2022-12-18T02:13:20;101923.03;;;-2.53;100.00
9077;BME280;4574;51.072;17.174;2022-12-18T02:15:54;101920.44;;;-2.52;100.00
9077;BME280;4574;51.072;17.174;2022-12-18T02:18:30;101915.22;;;-2.50;100.00
9077;BME280;4574;51.072;17.174;2022-12-18T02:21:04;101925.53;;;-2.46;100.00
9077;BME280;4574;51.072;17.174;2022-12-18T02:23:47;101927.28;;;-2.48;100.00
9077;BME280;4574;51.072;17.174;2022-12-18T02:26:22;101932.38;;;-2.43;100.00
9077;BME280;4574;51.072;17.174;2022-12-18T02:28:58;101937.56;;;-2.42;100.00
9077;BME280;4574;51.072;17.174;2022-12-18T02:31:32;101937.53;;;-2.40;100.00
9077;BME280;4574;51.072;17.174;2022-12-18T02:34:06;101935.81;;;-2.41;100.00
9077;BME280;4574;51.072;17.174;2022-12-18T02:36:38;101943.59;;;-2.41;100.00
9077;BME280;4574;51.072;17.174;2022-12-18T02:39:10;101947.09;;;-2.44;100.00
9077;BME280;4574;51.072;17.174;2022-12-18T02:41:41;101948.78;;;-2.41;100.00
9077;BME280;4574;51.072;17.174;2022-12-18T02:44:12;101951.34;;;-2.40;100.00
9077;BME280;4574;51.072;17.174;2022-12-18T02:46:43;101940.13;;;-2.40;100.00
9077;BME280;4574;51.072;17.174;2022-12-18T02:49:21;101941.81;;;-2.38;100.00
9077;BME280;4574;51.072;17.174;2022-12-18T02:51:55;101941.00;;;-2.40;100.00
9077;BME280;4574;51.072;17.174;2022-12-18T02:54:36;101949.59;;;-2.38;100.00
9077;BME280;4574;51.072;17.174;2022-12-18T02:57:14;101947.88;;;-2.40;100.00
9077;BME280;4574;51.072;17.174;2022-12-18T02:59:49;101953.13;;;-2.42;100.00
9077;BME280;4574;51.072;17.174;2022-12-18T03:05:01;101960.13;;;-2.48;100.00
9077;BME280;4574;51.072;17.174;2022-12-18T03:07:36;101964.47;;;-2.50;100.00
9077;BME280;4574;51.072;17.174;2022-12-18T03:10:09;101959.34;;;-2.53;100.00
9077;BME280;4574;51.072;17.174;2022-12-18T03:12:44;101947.25;;;-2.54;100.00
9077;BME280;4574;51.072;17.174;2022-12-18T03:15:18;101953.38;;;-2.60;100.00
9077;BME280;4574;51.072;17.174;2022-12-18T03:17:51;101959.50;;;-2.65;100.00
9077;BME280;4574;51.072;17.174;2022-12-18T03:20:22;101956.16;;;-2.73;100.00
9077;BME280;4574;51.072;17.174;2022-12-18T03:22:57;101967.38;;;-2.71;100.00
9077;BME280;4574;51.072;17.174;2022-12-18T03:25:28;101976.88;;;-2.70;100.00
9077;BME280;4574;51.072;17.174;2022-12-18T03:28:01;101970.75;;;-2.66;100.00
9077;BME280;4574;51.072;17.174;2022-12-18T03:30:33;101966.38;;;-2.63;100.00
9077;BME280;4574;51.072;17.174;2022-12-18T03:33:07;101975.81;;;-2.57;100.00
9077;BME280;4574;51.072;17.174;2022-12-18T03:35:40;101965.47;;;-2.60;100.00
9077;BME280;4574;51.072;17.174;2022-12-18T03:38:10;101971.47;;;-2.55;100.00
9077;BME280;4574;51.072;17.174;2022-12-18T03:40:48;101968.81;;;-2.51;100.00
9077;BME280;4574;51.072;17.174;2022-12-18T03:43:28;101971.31;;;-2.46;100.00
9077;BME280;4574;51.072;17.174;2022-12-18T03:46:02;101972.16;;;-2.43;100.00
9077;BME280;4574;51.072;17.174;2022-12-18T03:48:38;101974.69;;;-2.41;100.00
9077;BME280;4574;51.072;17.174;2022-12-18T03:51:10;101977.25;;;-2.38;100.00
9077;BME280;4574;51.072;17.174;2022-12-18T03:53:48;101975.53;;;-2.39;100.00
9077;BME280;4574;51.072;17.174;2022-12-18T03:56:21;101980.75;;;-2.41;100.00
9077;BME280;4574;51.072;17.174;2022-12-18T03:58:52;101982.53;;;-2.44;100.00
9077;BME280;4574;51.072;17.174;2022-12-18T04:01:25;101978.25;;;-2.47;100.00
9077;BME280;4574;51.072;17.174;2022-12-18T04:03:58;101991.28;;;-2.51;100.00
9077;BME280;4574;51.072;17.174;2022-12-18T04:06:28;101994.78;;;-2.55;100.00
9077;BME280;4574;51.072;17.174;2022-12-18T04:08:58;101995.00;;;-2.71;100.00
9077;BME280;4574;51.072;17.174;2022-12-18T04:11:26;101992.44;;;-2.73;100.00
9077;BME280;4574;51.072;17.174;2022-12-18T04:13:57;101999.31;;;-2.70;100.00
9077;BME280;4574;51.072;17.174;2022-12-18T04:16:31;102001.88;;;-2.67;100.00
9077;BME280;4574;51.072;17.174;2022-12-18T04:19:00;101999.28;;;-2.67;100.00
9077;BME280;4574;51.072;17.174;2022-12-18T04:21:28;102010.50;;;-2.67;100.00
9077;BME280;4574;51.072;17.174;2022-12-18T04:23:57;102007.03;;;-2.67;100.00
9077;BME280;4574;51.072;17.174;2022-12-18T04:26:25;102016.50;;;-2.62;100.00
9077;BME280;4574;51.072;17.174;2022-12-18T04:28:54;102020.78;;;-2.63;100.00
9077;BME280;4574;51.072;17.174;2022-12-18T04:31:23;102018.13;;;-2.57;100.00
9077;BME280;4574;51.072;17.174;2022-12-18T04:33:52;102024.97;;;-2.51;100.00
9077;BME280;4574;51.072;17.174;2022-12-18T04:36:21;102019.03;;;-2.61;100.00
9077;BME280;4574;51.072;17.174;2022-12-18T04:38:49;102028.66;;;-2.67;100.00
9077;BME280;4574;51.072;17.174;2022-12-18T04:41:18;102033.88;;;-2.70;100.00
9077;BME280;4574;51.072;17.174;2022-12-18T04:43:46;102039.06;;;-2.71;100.00
9077;BME280;4574;51.072;17.174;2022-12-18T04:46:14;102048.59;;;-2.73;100.00
9077;BME280;4574;51.072;17.174;2022-12-18T04:48:45;102047.75;;;-2.74;100.00
9077;BME280;4574;51.072;17.174;2022-12-18T04:51:14;102048.63;;;-2.76;100.00
9077;BME280;4574;51.072;17.174;2022-12-18T04:53:50;102051.25;;;-2.78;100.00
9077;BME280;4574;51.072;17.174;2022-12-18T04:56:18;102053.81;;;-2.76;100.00
9077;BME280;4574;51.072;17.174;2022-12-18T04:58:47;102062.53;;;-2.82;100.00
9077;BME280;4574;51.072;17.174;2022-12-18T05:01:17;102071.19;;;-2.83;100.00
9077;BME280;4574;51.072;17.174;2022-12-18T05:03:47;102063.34;;;-2.77;100.00
9077;BME280;4574;51.072;17.174;2022-12-18T05:06:16;102058.94;;;-2.72;100.00
9077;BME280;4574;51.072;17.174;2022-12-18T05:08:44;102064.06;;;-2.67;100.00
9077;BME280;4574;51.072;17.174;2022-12-18T05:11:14;102076.22;;;-2.71;100.00
9077;BME280;4574;51.072;17.174;2022-12-18T05:13:43;102070.22;;;-2.77;100.00
9077;BME280;4574;51.072;17.174;2022-12-18T05:16:13;102068.56;;;-2.80;100.00
9077;BME280;4574;51.072;17.174;2022-12-18T05:18:41;102071.97;;;-2.78;100.00
9077;BME280;4574;51.072;17.174;2022-12-18T05:21:11;102076.22;;;-2.72;100.00
9077;BME280;4574;51.072;17.174;2022-12-18T05:23:40;102074.47;;;-2.70;100.00
9077;BME280;4574;51.072;17.174;2022-12-18T05:26:09;102067.59;;;-2.74;100.00
9077;BME280;4574;51.072;17.174;2022-12-18T05:28:42;102074.63;;;-2.81;100.00
9077;BME280;4574;51.072;17.174;2022-12-18T05:31:11;102079.00;;;-2.86;100.00
9077;BME280;4574;51.072;17.174;2022-12-18T05:33:39;102086.66;;;-2.78;100.00
9077;BME280;4574;51.072;17.174;2022-12-18T05:36:11;102089.25;;;-2.77;100.00
9077;BME280;4574;51.072;17.174;2022-12-18T05:38:39;102085.88;;;-2.85;100.00
9077;BME280;4574;51.072;17.174;2022-12-18T05:41:09;102085.97;;;-2.91;100.00
9077;BME280;4574;51.072;17.174;2022-12-18T05:43:38;102079.13;;;-2.98;100.00
9077;BME280;4574;51.072;17.174;2022-12-18T05:46:11;102079.06;;;-2.93;100.00
9077;BME280;4574;51.072;17.174;2022-12-18T05:48:40;102082.56;;;-2.96;100.00
9077;BME280;4574;51.072;17.174;2022-12-18T05:51:11;102088.63;;;-2.98;100.00
9077;BME280;4574;51.072;17.174;2022-12-18T05:53:41;102090.38;;;-2.99;100.00
9077;BME280;4574;51.072;17.174;2022-12-18T05:56:12;102094.69;;;-2.99;100.00
9077;BME280;4574;51.072;17.174;2022-12-18T05:58:41;102096.50;;;-3.06;100.00
9077;BME280;4574;51.072;17.174;2022-12-18T06:01:14;102118.16;;;-3.14;100.00
9077;BME280;4574;51.072;17.174;2022-12-18T06:03:43;102111.25;;;-3.15;100.00
9077;BME280;4574;51.072;17.174;2022-12-18T06:06:15;102120.72;;;-3.14;100.00
9077;BME280;4574;51.072;17.174;2022-12-18T06:08:44;102113.88;;;-3.18;100.00
9077;BME280;4574;51.072;17.174;2022-12-18T06:11:16;102118.19;;;-3.17;100.00
9077;BME280;4574;51.072;17.174;2022-12-18T06:13:45;102122.53;;;-3.21;100.00
9077;BME280;4574;51.072;17.174;2022-12-18T06:16:14;102122.53;;;-3.22;100.00
9077;BME280;4574;51.072;17.174;2022-12-18T06:18:43;102123.38;;;-3.19;100.00
9077;BME280;4574;51.072;17.174;2022-12-18T06:21:11;102126.78;;;-3.15;100.00
9077;BME280;4574;51.072;17.174;2022-12-18T06:23:41;102134.53;;;-3.11;100.00
9077;BME280;4574;51.072;17.174;2022-12-18T06:26:12;102126.81;;;-3.17;100.00
9077;BME280;4574;51.072;17.174;2022-12-18T06:28:41;102133.72;;;-3.16;100.00
9077;BME280;4574;51.072;17.174;2022-12-18T06:31:10;102135.41;;;-3.13;100.00
9077;BME280;4574;51.072;17.174;2022-12-18T06:33:38;102136.25;;;-3.10;100.00
9077;BME280;4574;51.072;17.174;2022-12-18T06:36:09;102145.75;;;-3.12;100.00
9077;BME280;4574;51.072;17.174;2022-12-18T06:38:41;102148.34;;;-3.12;100.00
9077;BME280;4574;51.072;17.174;2022-12-18T06:41:12;102152.72;;;-3.18;100.00
9077;BME280;4574;51.072;17.174;2022-12-18T06:43:41;102155.44;;;-3.33;100.00
9077;BME280;4574;51.072;17.174;2022-12-18T06:46:10;102154.50;;;-3.26;100.00
9077;BME280;4574;51.072;17.174;2022-12-18T06:48:39;102157.16;;;-3.31;100.00
9077;BME280;4574;51.072;17.174;2022-12-18T06:51:07;102157.19;;;-3.34;100.00
9077;BME280;4574;51.072;17.174;2022-12-18T06:53:36;102166.66;;;-3.34;100.00
9077;BME280;4574;51.072;17.174;2022-12-18T06:56:07;102165.78;;;-3.29;100.00
9077;BME280;4574;51.072;17.174;2022-12-18T06:58:37;102169.22;;;-3.27;100.00
9077;BME280;4574;51.072;17.174;2022-12-18T07:01:07;102164.03;;;-3.27;100.00
9077;BME280;4574;51.072;17.174;2022-12-18T07:03:37;102175.25;;;-3.28;100.00
9077;BME280;4574;51.072;17.174;2022-12-18T07:06:13;102174.38;;;-3.28;100.00
9077;BME280;4574;51.072;17.174;2022-12-18T07:08:43;102170.06;;;-3.26;100.00
9077;BME280;4574;51.072;17.174;2022-12-18T07:11:13;102170.94;;;-3.26;100.00
9077;BME280;4574;51.072;17.174;2022-12-18T07:13:41;102182.19;;;-3.31;100.00
9077;BME280;4574;51.072;17.174;2022-12-18T07:16:12;102195.97;;;-3.28;100.00
9077;BME280;4574;51.072;17.174;2022-12-18T07:18:50;102189.91;;;-3.24;100.00
9077;BME280;4574;51.072;17.174;2022-12-18T07:21:19;102188.16;;;-3.23;100.00
9077;BME280;4574;51.072;17.174;2022-12-18T07:23:47;102194.25;;;-3.29;100.00
9077;BME280;4574;51.072;17.174;2022-12-18T07:26:19;102193.38;;;-3.29;100.00
9077;BME280;4574;51.072;17.174;2022-12-18T07:28:47;102202.03;;;-3.29;100.00
9077;BME280;4574;51.072;17.174;2022-12-18T07:31:19;102204.63;;;-3.33;100.00
9077;BME280;4574;51.072;17.174;2022-12-18T07:33:48;102196.91;;;-3.39;100.00
9077;BME280;4574;51.072;17.174;2022-12-18T07:36:17;102209.91;;;-3.47;100.00
9077;BME280;4574;51.072;17.174;2022-12-18T07:38:47;102211.69;;;-3.53;100.00
9077;BME280;4574;51.072;17.174;2022-12-18T07:41:17;102206.47;;;-3.49;100.00
9077;BME280;4574;51.072;17.174;2022-12-18T07:43:46;102212.50;;;-3.50;100.00
9077;BME280;4574;51.072;17.174;2022-12-18T07:46:15;102222.81;;;-3.44;100.00
9077;BME280;4574;51.072;17.174;2022-12-18T07:48:44;102228.91;;;-3.49;100.00
9077;BME280;4574;51.072;17.174;2022-12-18T07:51:16;102230.59;;;-3.44;100.00
9077;BME280;4574;51.072;17.174;2022-12-18T07:53:45;102222.84;;;-3.47;100.00
9077;BME280;4574;51.072;17.174;2022-12-18T07:56:19;102228.88;;;-3.48;100.00
9077;BME280;4574;51.072;17.174;2022-12-18T07:58:57;102221.19;;;-3.57;100.00
9077;BME280;4574;51.072;17.174;2022-12-18T08:01:26;102223.72;;;-3.51;100.00
9077;BME280;4574;51.072;17.174;2022-12-18T08:03:55;102224.56;;;-3.49;100.00
9077;BME280;4574;51.072;17.174;2022-12-18T08:06:23;102221.16;;;-3.54;100.00
9077;BME280;4574;51.072;17.174;2022-12-18T08:08:53;102236.66;;;-3.48;100.00
9077;BME280;4574;51.072;17.174;2022-12-18T08:11:24;102236.66;;;-3.48;100.00
9077;BME280;4574;51.072;17.174;2022-12-18T08:13:53;102238.38;;;-3.50;100.00
9077;BME280;4574;51.072;17.174;2022-12-18T08:16:22;102235.81;;;-3.53;100.00
9077;BME280;4574;51.072;17.174;2022-12-18T08:18:52;102253.06;;;-3.52;100.00
9077;BME280;4574;51.072;17.174;2022-12-18T08:21:22;102260.81;;;-3.49;100.00
9077;BME280;4574;51.072;17.174;2022-12-18T08:23:51;102261.66;;;-3.47;100.00
9077;BME280;4574;51.072;17.174;2022-12-18T08:26:22;102265.13;;;-3.46;100.00
9077;BME280;4574;51.072;17.174;2022-12-18T08:28:53;102263.41;;;-3.47;100.00
9077;BME280;4574;51.072;17.174;2022-12-18T08:31:21;102266.81;;;-3.44;100.00
9077;BME280;4574;51.072;17.174;2022-12-18T08:33:51;102265.13;;;-3.51;100.00
9077;BME280;4574;51.072;17.174;2022-12-18T08:36:21;102273.72;;;-3.46;100.00
9077;BME280;4574;51.072;17.174;2022-12-18T08:38:51;102278.91;;;-3.40;100.00
9077;BME280;4574;51.072;17.174;2022-12-18T08:41:20;102283.19;;;-3.36;100.00
9077;BME280;4574;51.072;17.174;2022-12-18T08:43:50;102288.38;;;-3.39;100.00
9077;BME280;4574;51.072;17.174;2022-12-18T08:46:38;102288.44;;;-3.51;100.00
9077;BME280;4574;51.072;17.174;2022-12-18T08:49:07;102289.28;;;-3.44;100.00
9077;BME280;4574;51.072;17.174;2022-12-18T08:51:37;102290.13;;;-3.45;100.00
9077;BME280;4574;51.072;17.174;2022-12-18T08:54:06;102295.31;;;-3.50;100.00
9077;BME280;4574;51.072;17.174;2022-12-18T08:56:35;102298.72;;;-3.42;100.00
9077;BME280;4574;51.072;17.174;2022-12-18T08:59:05;102296.16;;;-3.40;100.00
9077;BME280;4574;51.072;17.174;2022-12-18T09:01:33;102289.22;;;-3.35;100.00
9077;BME280;4574;51.072;17.174;2022-12-18T09:04:02;102290.06;;;-3.32;100.00
9077;BME280;4574;51.072;17.174;2022-12-18T09:06:33;102281.44;;;-3.31;100.00
9077;BME280;4574;51.072;17.174;2022-12-18T09:09:03;102282.25;;;-3.27;100.00
9077;BME280;4574;51.072;17.174;2022-12-18T09:11:32;102283.09;;;-3.24;100.00
9077;BME280;4574;51.072;17.174;2022-12-18T09:14:01;102286.53;;;-3.19;100.00
9077;BME280;4574;51.072;17.174;2022-12-18T09:16:32;102283.06;;;-3.18;100.00
9077;BME280;4574;51.072;17.174;2022-12-18T09:19:03;102279.59;;;-3.18;100.00
9077;BME280;4574;51.072;17.174;2022-12-18T09:21:33;102271.84;;;-3.21;100.00
9077;BME280;4574;51.072;17.174;2022-12-18T09:24:03;102264.16;;;-3.29;100.00
9077;BME280;4574;51.072;17.174;2022-12-18T09:26:34;102255.44;;;-3.19;100.00
9077;BME280;4574;51.072;17.174;2022-12-18T09:29:03;102258.00;;;-3.17;100.00
9077;BME280;4574;51.072;17.174;2022-12-18T09:31:33;102245.09;;;-3.19;100.00
9077;BME280;4574;51.072;17.174;2022-12-18T09:34:06;102248.59;;;-3.27;100.00
9077;BME280;4574;51.072;17.174;2022-12-18T09:36:35;102240.84;;;-3.26;100.00
9077;BME280;4574;51.072;17.174;2022-12-18T09:39:04;102220.09;;;-3.23;100.00
9077;BME280;4574;51.072;17.174;2022-12-18T09:41:46;102226.06;;;-3.15;100.00
9077;BME280;4574;51.072;17.174;2022-12-18T09:44:24;102229.56;;;-3.19;100.00
9077;BME280;4574;51.072;17.174;2022-12-18T09:47:02;102218.34;;;-3.22;100.00
9077;BME280;4574;51.072;17.174;2022-12-18T09:49:37;102227.84;;;-3.20;100.00
9077;BME280;4574;51.072;17.174;2022-12-18T09:52:11;102227.91;;;-3.29;100.00
9077;BME280;4574;51.072;17.174;2022-12-18T09:54:44;102233.13;;;-3.36;100.00
9077;BME280;4574;51.072;17.174;2022-12-18T09:57:16;102233.16;;;-3.41;100.00
9077;BME280;4574;51.072;17.174;2022-12-18T09:59:50;102242.63;;;-3.38;100.00
9077;BME280;4574;51.072;17.174;2022-12-18T10:02:24;102225.38;;;-3.36;100.00
9077;BME280;4574;51.072;17.174;2022-12-18T10:05:03;102231.38;;;-3.30;100.00
9077;BME280;4574;51.072;17.174;2022-12-18T10:07:45;102222.75;;;-3.33;100.00
9077;BME280;4574;51.072;17.174;2022-12-18T10:10:27;102226.25;;;-3.36;100.00
9077;BME280;4574;51.072;17.174;2022-12-18T10:13:14;102223.59;;;-3.31;100.00
9077;BME280;4574;51.072;17.174;2022-12-18T10:15:54;102234.84;;;-3.31;100.00
9077;BME280;4574;51.072;17.174;2022-12-18T10:18:42;102235.69;;;-3.33;100.00
9077;BME280;4574;51.072;17.174;2022-12-18T10:21:16;102230.56;;;-3.35;100.00
9077;BME280;4574;51.072;17.174;2022-12-18T10:23:51;102241.78;;;-3.36;100.00
9077;BME280;4574;51.072;17.174;2022-12-18T10:26:24;102242.66;;;-3.40;100.00
9077;BME280;4574;51.072;17.174;2022-12-18T10:28:53;102251.28;;;-3.38;100.00
9077;BME280;4574;51.072;17.174;2022-12-18T10:31:31;102249.50;;;-3.34;100.00
9077;BME280;4574;51.072;17.174;2022-12-18T10:34:01;102242.63;;;-3.34;100.00
9077;BME280;4574;51.072;17.174;2022-12-18T10:36:29;102240.91;;;-3.35;100.00
9077;BME280;4574;51.072;17.174;2022-12-18T10:39:14;102234.84;;;-3.34;100.00
9077;BME280;4574;51.072;17.174;2022-12-18T10:41:43;102229.72;;;-3.40;100.00
9077;BME280;4574;51.072;17.174;2022-12-18T10:44:19;102229.69;;;-3.37;100.00
9077;BME280;4574;51.072;17.174;2022-12-18T10:46:48;102241.69;;;-3.27;100.00
9077;BME280;4574;51.072;17.174;2022-12-18T10:49:25;102250.34;;;-3.32;100.00
9077;BME280;4574;51.072;17.174;2022-12-18T10:52:05;102243.47;;;-3.32;100.00
9077;BME280;4574;51.072;17.174;2022-12-18T10:54:36;102227.09;;;-3.34;100.00
9077;BME280;4574;51.072;17.174;2022-12-18T10:57:15;102235.69;;;-3.29;100.00
9077;BME280;4574;51.072;17.174;2022-12-18T10:59:51;102241.69;;;-3.24;100.00
9077;BME280;4574;51.072;17.174;2022-12-18T11:02:28;102242.53;;;-3.23;100.00
9077;BME280;4574;51.072;17.174;2022-12-18T11:05:24;102246.78;;;-3.15;100.00
9077;BME280;4574;51.072;17.174;2022-12-18T11:07:54;102247.81;;;-3.34;100.00
9077;BME280;4574;51.072;17.174;2022-12-18T11:10:26;102249.44;;;-3.21;100.00
9077;BME280;4574;51.072;17.174;2022-12-18T11:13:09;102238.19;;;-3.20;100.00
9077;BME280;4574;51.072;17.174;2022-12-18T11:15:40;102257.16;;;-3.15;100.00
9077;BME280;4574;51.072;17.174;2022-12-18T11:18:16;102258.84;;;-3.11;100.00
9077;BME280;4574;51.072;17.174;2022-12-18T11:20:53;102261.53;;;-3.27;100.00
9077;BME280;4574;51.072;17.174;2022-12-18T11:23:25;102253.72;;;-3.17;100.00
9077;BME280;4574;51.072;17.174;2022-12-18T11:25:56;102261.44;;;-3.11;100.00
9077;BME280;4574;51.072;17.174;2022-12-18T11:28:29;102259.66;;;-3.07;100.00
9077;BME280;4574;51.072;17.174;2022-12-18T11:31:15;102258.84;;;-3.11;100.00
9077;BME280;4574;51.072;17.174;2022-12-18T11:33:48;102267.41;;;-3.04;100.00
9077;BME280;4574;51.072;17.174;2022-12-18T11:36:44;102262.25;;;-3.06;100.00
9077;BME280;4574;51.072;17.174;2022-12-18T11:39:18;102265.69;;;-3.04;100.00
9077;BME280;4574;51.072;17.174;2022-12-18T11:41:52;102261.44;;;-3.11;100.00
9077;BME280;4574;51.072;17.174;2022-12-18T11:44:46;102252.72;;;-3.05;100.00
9077;BME280;4574;51.072;17.174;2022-12-18T11:47:22;102253.59;;;-3.02;100.00
9077;BME280;4574;51.072;17.174;2022-12-18T11:49:55;102258.72;;;-2.97;100.00
9077;BME280;4574;51.072;17.174;2022-12-18T11:52:27;102249.19;;;-2.95;100.00
9077;BME280;4574;51.072;17.174;2022-12-18T11:54:59;102244.00;;;-2.91;100.00
9077;BME280;4574;51.072;17.174;2022-12-18T11:57:35;102235.34;;;-2.90;100.00
9077;BME280;4574;51.072;17.174;2022-12-18T12:00:13;102239.66;;;-2.89;100.00
9077;BME280;4574;51.072;17.174;2022-12-18T12:03:19;102243.19;;;-2.99;100.00
9077;BME280;4574;51.072;17.174;2022-12-18T12:06:02;102242.28;;;-2.93;100.00
9077;BME280;4574;51.072;17.174;2022-12-18T12:08:45;102242.38;;;-3.04;100.00
9077;BME280;4574;51.072;17.174;2022-12-18T12:11:22;102239.75;;;-3.01;100.00
9077;BME280;4574;51.072;17.174;2022-12-18T12:14:05;102237.31;;;-3.16;100.00
9077;BME280;4574;51.072;17.174;2022-12-18T12:16:43;102239.81;;;-3.08;100.00
9077;BME280;4574;51.072;17.174;2022-12-18T12:19:26;102229.44;;;-3.07;100.00
9077;BME280;4574;51.072;17.174;2022-12-18T12:22:05;102238.00;;;-2.99;100.00
9077;BME280;4574;51.072;17.174;2022-12-18T12:24:49;102233.63;;;-2.91;100.00
9077;BME280;4574;51.072;17.174;2022-12-18T12:27:25;102240.56;;;-2.97;100.00
9077;BME280;4574;51.072;17.174;2022-12-18T12:30:04;102232.81;;;-2.96;100.00
9077;BME280;4574;51.072;17.174;2022-12-18T12:32:49;102226.00;;;-3.06;100.00
9077;BME280;4574;51.072;17.174;2022-12-18T12:35:27;102226.06;;;-3.15;100.00
9077;BME280;4574;51.072;17.174;2022-12-18T12:38:05;102224.25;;;-3.04;100.00
9077;BME280;4574;51.072;17.174;2022-12-18T12:40:40;102211.34;;;-3.11;100.00
9077;BME280;4574;51.072;17.174;2022-12-18T12:43:33;102220.72;;;-2.97;100.00
9077;BME280;4574;51.072;17.174;2022-12-18T12:46:05;102233.69;;;-2.97;100.00
9077;BME280;4574;51.072;17.174;2022-12-18T12:48:42;102227.53;;;-2.87;100.00
9077;BME280;4574;51.072;17.174;2022-12-18T12:51:16;102233.63;;;-2.92;100.00
9077;BME280;4574;51.072;17.174;2022-12-18T12:53:46;102237.97;;;-2.94;100.00
9077;BME280;4574;51.072;17.174;2022-12-18T12:56:19;102231.88;;;-2.89;100.00
9077;BME280;4574;51.072;17.174;2022-12-18T12:58:57;102216.34;;;-2.89;100.00
9077;BME280;4574;51.072;17.174;2022-12-18T13:01:33;102236.16;;;-2.85;100.00
9077;BME280;4574;51.072;17.174;2022-12-18T13:04:15;102238.00;;;-2.96;100.00
9077;BME280;4574;51.072;17.174;2022-12-18T13:06:54;102237.16;;;-3.01;100.00
9077;BME280;4574;51.072;17.174;2022-12-18T13:09:30;102231.94;;;-2.96;100.00
9077;BME280;4574;51.072;17.174;2022-12-18T13:12:08;102231.06;;;-2.95;100.00
9077;BME280;4574;51.072;17.174;2022-12-18T13:15:13;102228.63;;;-3.13;100.00
9077;BME280;4574;51.072;17.174;2022-12-18T13:17:47;102231.31;;;-3.21;100.00
9077;BME280;4574;51.072;17.174;2022-12-18T13:20:16;102238.16;;;-3.14;100.00